TimeEST,TemperatureF,Dew PointF,Humidity,Sea Level PressureIn,VisibilityMPH,Wind Direction,Wind SpeedMPH,Gust SpeedMPH,PrecipitationIn,Events,Conditions,WindDirDegrees,DateUTC
12:15 AM,30.9,28.2,90,30.30,3.0,North,3.5,-,N/A,Snow,Light Snow,350,2012-11-27 05:15:00
12:35 AM,30.6,28.4,92,30.30,4.0,North,6.9,-,N/A,Snow,Light Snow,350,2012-11-27 05:35:00
12:55 AM,30.4,28.0,91,30.30,4.0,North,6.9,-,N/A,Snow,Light Snow,360,2012-11-27 05:55:00
1:15 AM,30.2,28.0,92,30.30,5.0,North,4.6,-,N/A,,Overcast,10,2012-11-27 06:15:00
1:35 AM,30.2,28.2,92,30.30,7.0,North,5.8,-,N/A,,Overcast,10,2012-11-27 06:35:00
2:15 AM,30.6,27.1,87,30.29,7.0,NE,3.5,-,N/A,,Overcast,40,2012-11-27 07:15:00
2:35 AM,30.6,27.1,87,30.28,7.0,Calm,Calm,-,N/A,,Overcast,0,2012-11-27 07:35:00
2:55 AM,30.6,27.0,86,30.29,7.0,Calm,Calm,-,N/A,,Overcast,0,2012-11-27 07:55:00
3:15 AM,30.6,26.8,86,30.29,10.0,Calm,Calm,-,N/A,,Overcast,0,2012-11-27 08:15:00
3:35 AM,30.2,27.0,88,30.29,7.0,Calm,Calm,-,N/A,,Overcast,0,2012-11-27 08:35:00
3:55 AM,30.2,26.6,86,30.29,7.0,Calm,Calm,-,N/A,,Overcast,0,2012-11-27 08:55:00
4:15 AM,29.5,26.4,88,30.29,7.0,Calm,Calm,-,N/A,,Mostly Cloudy,0,2012-11-27 09:15:00
4:35 AM,28.4,26.2,92,30.29,4.0,Calm,Calm,-,N/A,,Scattered Clouds,0,2012-11-27 09:35:00
4:55 AM,27.3,25.9,94,30.29,3.0,Calm,Calm,-,N/A,,Scattered Clouds,0,2012-11-27 09:55:00
5:15 AM,26.2,25.0,95,30.30,0.8,West,3.5,-,N/A,,Mostly Cloudy,280,2012-11-27 10:15:00
5:35 AM,24.8,23.9,96,30.30,0.5,Calm,Calm,-,N/A,Fog,Light Freezing Fog,0,2012-11-27 10:35:00
5:55 AM,25.0,24.1,96,30.30,2.0,Calm,Calm,-,N/A,,Overcast,0,2012-11-27 10:55:00
6:15 AM,26.4,25.5,96,30.30,2.5,Calm,Calm,-,N/A,,Overcast,0,2012-11-27 11:15:00
7:35 AM,27.5,27.0,98,30.31,4.0,Calm,Calm,-,N/A,,Overcast,0,2012-11-27 12:35:00
7:55 AM,27.0,26.4,98,30.32,4.0,Calm,Calm,-,N/A,,Overcast,0,2012-11-27 12:55:00
8:15 AM,26.4,25.9,98,30.34,2.0,Calm,Calm,-,N/A,,Overcast,0,2012-11-27 13:15:00
8:35 AM,27.3,26.8,98,30.34,3.0,Calm,Calm,-,N/A,,Overcast,0,2012-11-27 13:35:00
8:55 AM,27.1,26.8,99,30.35,2.5,Calm,Calm,-,N/A,,Overcast,0,2012-11-27 13:55:00
9:15 AM,27.1,26.6,98,30.36,3.0,Calm,Calm,-,N/A,,Overcast,0,2012-11-27 14:15:00
9:35 AM,27.9,27.3,98,30.36,4.0,Calm,Calm,-,N/A,,Overcast,0,2012-11-27 14:35:00
9:55 AM,28.8,28.2,98,30.36,5.0,Calm,Calm,-,N/A,,Overcast,0,2012-11-27 14:55:00
10:15 AM,29.5,27.9,94,30.37,7.0,Calm,Calm,-,N/A,,Overcast,0,2012-11-27 15:15:00
10:35 AM,30.6,27.3,88,30.37,7.0,Calm,Calm,-,N/A,,Scattered Clouds,0,2012-11-27 15:35:00
10:55 AM,31.8,26.2,80,30.39,7.0,WNW,3.5,-,N/A,,Mostly Cloudy,290,2012-11-27 15:55:00
11:15 AM,32.2,25.0,75,30.39,10.0,NW,4.6,-,N/A,,Mostly Cloudy,320,2012-11-27 16:15:00
11:35 AM,32.0,23.7,71,30.40,10.0,Calm,Calm,-,N/A,,Mostly Cloudy,0,2012-11-27 16:35:00
11:55 AM,32.0,22.1,67,30.39,10.0,North,4.6,-,N/A,,Mostly Cloudy,10,2012-11-27 16:55:00
12:35 PM,33.8,22.5,63,30.36,10.0,NNW,4.6,-,N/A,,Mostly Cloudy,340,2012-11-27 17:35:00
12:55 PM,34.2,22.1,61,30.34,10.0,NNW,5.8,-,N/A,,Scattered Clouds,340,2012-11-27 17:55:00
1:15 PM,34.5,22.1,61,30.34,10.0,NNW,8.1,-,N/A,,Scattered Clouds,340,2012-11-27 18:15:00
1:35 PM,34.9,22.3,60,30.33,10.0,North,5.8,-,N/A,,Clear,360,2012-11-27 18:35:00
1:55 PM,35.2,21.2,57,30.33,10.0,WNW,3.5,-,N/A,,Clear,290,2012-11-27 18:55:00
2:15 PM,35.8,20.7,54,30.32,10.0,NNW,4.6,-,N/A,,Clear,340,2012-11-27 19:15:00
2:35 PM,35.8,20.5,54,30.31,10.0,Calm,Calm,-,N/A,,Clear,0,2012-11-27 19:35:00
2:55 PM,35.8,20.7,54,30.30,10.0,Calm,Calm,-,N/A,,Clear,0,2012-11-27 19:55:00
3:15 PM,36.5,21.4,54,30.30,10.0,WNW,3.5,-,N/A,,Clear,300,2012-11-27 20:15:00
3:35 PM,35.8,20.5,54,30.29,10.0,WNW,4.6,-,N/A,,Clear,300,2012-11-27 20:35:00
4:15 PM,35.8,21.0,55,30.29,10.0,NW,5.8,-,N/A,,Clear,310,2012-11-27 21:15:00
4:35 PM,35.4,21.7,58,30.29,10.0,WNW,4.6,-,N/A,,Scattered Clouds,300,2012-11-27 21:35:00
4:55 PM,35.1,22.8,61,30.29,10.0,West,4.6,-,N/A,,Scattered Clouds,280,2012-11-27 21:55:00
5:35 PM,33.4,23.7,68,30.28,10.0,West,4.6,-,N/A,,Clear,270,2012-11-27 22:35:00
6:15 PM,32.7,23.5,69,30.29,10.0,WSW,5.8,-,N/A,,Clear,250,2012-11-27 23:15:00
6:35 PM,32.0,23.7,71,30.30,10.0,WSW,4.6,-,N/A,,Clear,240,2012-11-27 23:35:00
6:55 PM,31.6,24.6,75,30.31,10.0,WSW,5.8,-,N/A,,Clear,250,2012-11-27 23:55:00
7:15 PM,30.6,25.2,80,30.31,10.0,WSW,4.6,-,N/A,,Clear,250,2012-11-28 00:15:00
7:35 PM,29.7,24.8,82,30.31,10.0,West,5.8,-,N/A,,Clear,260,2012-11-28 00:35:00
7:55 PM,29.5,24.4,81,30.30,10.0,WSW,3.5,-,N/A,,Clear,240,2012-11-28 00:55:00
8:15 PM,28.8,23.7,81,30.30,10.0,SW,3.5,-,N/A,,Clear,230,2012-11-28 01:15:00
8:55 PM,27.5,23.2,84,30.31,10.0,SW,4.6,-,N/A,,Clear,230,2012-11-28 01:55:00
9:15 PM,27.1,23.0,84,30.30,10.0,SW,5.8,-,N/A,,Clear,230,2012-11-28 02:15:00
9:35 PM,27.5,23.0,83,30.31,10.0,SW,5.8,-,N/A,,Clear,230,2012-11-28 02:35:00
10:15 PM,27.3,23.0,84,30.31,10.0,SW,4.6,-,N/A,,Clear,220,2012-11-28 03:15:00
10:35 PM,27.9,23.4,83,30.30,10.0,SW,4.6,-,N/A,,Clear,220,2012-11-28 03:35:00
10:55 PM,27.9,23.7,84,30.30,10.0,SSW,4.6,-,N/A,,Clear,210,2012-11-28 03:55:00
11:15 PM,27.5,23.5,85,30.30,10.0,SSW,4.6,-,N/A,,Clear,210,2012-11-28 04:15:00
11:35 PM,27.1,23.2,85,30.30,10.0,SW,4.6,-,N/A,,Clear,220,2012-11-28 04:35:00
11:55 PM,26.4,22.8,86,30.30,10.0,SSW,5.8,-,N/A,,Clear,210,2012-11-28 04:55:00